sensor_id;sensor_type;location;lat;lon;timestamp;P1;durP1;ratioP1;P2;durP2;ratioP2
6864;SDS011;3471;49.678;8.388;2023-08-06T00:01:50;6.00;;;3.13;;
6864;SDS011;3471;49.678;8.388;2023-08-06T00:04:15;3.47;;;3.20;;
6864;SDS011;3471;49.678;8.388;2023-08-06T00:06:41;2.90;;;2.60;;
6864;SDS011;3471;49.678;8.388;2023-08-06T00:09:07;5.10;;;2.90;;
6864;SDS011;3471;49.678;8.388;2023-08-06T00:11:33;3.95;;;2.85;;
6864;SDS011;3471;49.678;8.388;2023-08-06T00:13:58;6.23;;;4.27;;
6864;SDS011;3471;49.678;8.388;2023-08-06T00:16:24;9.73;;;3.33;;
6864;SDS011;3471;49.678;8.388;2023-08-06T00:18:49;7.87;;;2.87;;
6864;SDS011;3471;49.678;8.388;2023-08-06T00:21:15;3.30;;;2.90;;
6864;SDS011;3471;49.678;8.388;2023-08-06T00:23:41;4.43;;;4.03;;
6864;SDS011;3471;49.678;8.388;2023-08-06T00:26:06;7.43;;;3.37;;
6864;SDS011;3471;49.678;8.388;2023-08-06T00:28:32;3.00;;;2.70;;
6864;SDS011;3471;49.678;8.388;2023-08-06T00:30:58;5.27;;;3.83;;
6864;SDS011;3471;49.678;8.388;2023-08-06T00:33:23;4.00;;;3.13;;
6864;SDS011;3471;49.678;8.388;2023-08-06T00:35:49;3.13;;;2.83;;
6864;SDS011;3471;49.678;8.388;2023-08-06T00:38:15;3.20;;;2.63;;
6864;SDS011;3471;49.678;8.388;2023-08-06T00:40:41;2.30;;;2.10;;
6864;SDS011;3471;49.678;8.388;2023-08-06T00:43:06;3.60;;;2.57;;
6864;SDS011;3471;49.678;8.388;2023-08-06T00:45:36;3.22;;;2.35;;
6864;SDS011;3471;49.678;8.388;2023-08-06T00:48:03;2.75;;;2.55;;
6864;SDS011;3471;49.678;8.388;2023-08-06T00:50:30;3.85;;;3.08;;
6864;SDS011;3471;49.678;8.388;2023-08-06T00:52:56;3.70;;;2.53;;
6864;SDS011;3471;49.678;8.388;2023-08-06T00:55:21;2.80;;;2.30;;
6864;SDS011;3471;49.678;8.388;2023-08-06T00:57:47;3.20;;;2.83;;
6864;SDS011;3471;49.678;8.388;2023-08-06T01:00:13;3.47;;;2.65;;
6864;SDS011;3471;49.678;8.388;2023-08-06T01:02:39;3.92;;;2.30;;
6864;SDS011;3471;49.678;8.388;2023-08-06T01:05:05;2.90;;;2.50;;
6864;SDS011;3471;49.678;8.388;2023-08-06T01:10:19;2.72;;;2.50;;
6864;SDS011;3471;49.678;8.388;2023-08-06T01:12:52;3.33;;;2.50;;
6864;SDS011;3471;49.678;8.388;2023-08-06T01:15:22;6.50;;;3.20;;
6864;SDS011;3471;49.678;8.388;2023-08-06T01:17:52;6.80;;;2.78;;
6864;SDS011;3471;49.678;8.388;2023-08-06T01:20:19;3.10;;;2.80;;
6864;SDS011;3471;49.678;8.388;2023-08-06T01:22:44;5.00;;;2.30;;
6864;SDS011;3471;49.678;8.388;2023-08-06T01:25:10;3.08;;;2.58;;
6864;SDS011;3471;49.678;8.388;2023-08-06T01:27:47;4.00;;;2.15;;
6864;SDS011;3471;49.678;8.388;2023-08-06T01:30:20;3.05;;;2.55;;
6864;SDS011;3471;49.678;8.388;2023-08-06T01:32:50;3.78;;;1.98;;
6864;SDS011;3471;49.678;8.388;2023-08-06T01:35:21;4.00;;;2.70;;
6864;SDS011;3471;49.678;8.388;2023-08-06T01:37:47;2.20;;;2.00;;
6864;SDS011;3471;49.678;8.388;2023-08-06T01:40:13;2.28;;;2.08;;
6864;SDS011;3471;49.678;8.388;2023-08-06T01:42:39;4.37;;;2.70;;
6864;SDS011;3471;49.678;8.388;2023-08-06T01:45:08;3.10;;;2.70;;
6864;SDS011;3471;49.678;8.388;2023-08-06T01:47:34;4.22;;;2.75;;
6864;SDS011;3471;49.678;8.388;2023-08-06T01:50:00;2.90;;;2.20;;
6864;SDS011;3471;49.678;8.388;2023-08-06T01:52:26;3.33;;;3.03;;
6864;SDS011;3471;49.678;8.388;2023-08-06T01:54:52;3.60;;;2.65;;
6864;SDS011;3471;49.678;8.388;2023-08-06T01:57:18;2.28;;;2.05;;
6864;SDS011;3471;49.678;8.388;2023-08-06T01:59:43;4.40;;;2.40;;
6864;SDS011;3471;49.678;8.388;2023-08-06T02:02:09;3.30;;;2.47;;
6864;SDS011;3471;49.678;8.388;2023-08-06T02:04:34;2.60;;;2.40;;
6864;SDS011;3471;49.678;8.388;2023-08-06T02:07:00;3.00;;;2.27;;
6864;SDS011;3471;49.678;8.388;2023-08-06T02:09:26;3.60;;;2.20;;
6864;SDS011;3471;49.678;8.388;2023-08-06T02:11:51;2.73;;;2.47;;
6864;SDS011;3471;49.678;8.388;2023-08-06T02:14:17;2.63;;;2.43;;
6864;SDS011;3471;49.678;8.388;2023-08-06T02:16:42;2.50;;;1.80;;
6864;SDS011;3471;49.678;8.388;2023-08-06T02:19:08;2.80;;;2.10;;
6864;SDS011;3471;49.678;8.388;2023-08-06T02:21:33;2.53;;;2.00;;
6864;SDS011;3471;49.678;8.388;2023-08-06T02:23:59;3.23;;;2.60;;
6864;SDS011;3471;49.678;8.388;2023-08-06T02:26:25;3.73;;;1.90;;
6864;SDS011;3471;49.678;8.388;2023-08-06T02:28:50;3.63;;;3.00;;
6864;SDS011;3471;49.678;8.388;2023-08-06T02:31:16;5.40;;;2.17;;
6864;SDS011;3471;49.678;8.388;2023-08-06T02:33:41;4.40;;;2.67;;
6864;SDS011;3471;49.678;8.388;2023-08-06T02:36:07;4.37;;;2.30;;
6864;SDS011;3471;49.678;8.388;2023-08-06T02:38:33;6.38;;;2.40;;
6864;SDS011;3471;49.678;8.388;2023-08-06T02:40:58;2.80;;;1.90;;
6864;SDS011;3471;49.678;8.388;2023-08-06T02:43:26;2.23;;;2.03;;
6864;SDS011;3471;49.678;8.388;2023-08-06T02:45:52;3.90;;;2.67;;
6864;SDS011;3471;49.678;8.388;2023-08-06T02:48:21;2.60;;;2.30;;
6864;SDS011;3471;49.678;8.388;2023-08-06T02:50:46;3.77;;;2.87;;
6864;SDS011;3471;49.678;8.388;2023-08-06T02:53:12;5.80;;;3.57;;
6864;SDS011;3471;49.678;8.388;2023-08-06T02:55:38;2.43;;;2.10;;
6864;SDS011;3471;49.678;8.388;2023-08-06T02:58:09;2.50;;;2.30;;
6864;SDS011;3471;49.678;8.388;2023-08-06T03:00:35;2.97;;;2.63;;
6864;SDS011;3471;49.678;8.388;2023-08-06T03:03:00;2.73;;;2.00;;
6864;SDS011;3471;49.678;8.388;2023-08-06T03:05:26;4.20;;;2.23;;
6864;SDS011;3471;49.678;8.388;2023-08-06T03:07:51;3.07;;;2.73;;
6864;SDS011;3471;49.678;8.388;2023-08-06T03:10:17;2.50;;;2.10;;
6864;SDS011;3471;49.678;8.388;2023-08-06T03:12:43;2.50;;;2.10;;
6864;SDS011;3471;49.678;8.388;2023-08-06T03:15:08;3.90;;;2.67;;
6864;SDS011;3471;49.678;8.388;2023-08-06T03:17:34;1.90;;;1.65;;
6864;SDS011;3471;49.678;8.388;2023-08-06T03:20:00;2.77;;;2.43;;
6864;SDS011;3471;49.678;8.388;2023-08-06T03:22:25;3.03;;;1.93;;
6864;SDS011;3471;49.678;8.388;2023-08-06T03:24:51;2.10;;;1.90;;
6864;SDS011;3471;49.678;8.388;2023-08-06T03:27:17;3.53;;;2.57;;
6864;SDS011;3471;49.678;8.388;2023-08-06T03:29:42;2.50;;;2.10;;
6864;SDS011;3471;49.678;8.388;2023-08-06T03:32:08;2.20;;;1.80;;
6864;SDS011;3471;49.678;8.388;2023-08-06T03:34:33;3.70;;;2.60;;
6864;SDS011;3471;49.678;8.388;2023-08-06T03:36:59;2.80;;;1.90;;
6864;SDS011;3471;49.678;8.388;2023-08-06T03:39:25;2.85;;;2.25;;
6864;SDS011;3471;49.678;8.388;2023-08-06T03:41:51;4.97;;;3.10;;
6864;SDS011;3471;49.678;8.388;2023-08-06T03:44:16;2.80;;;2.27;;
6864;SDS011;3471;49.678;8.388;2023-08-06T03:46:42;2.77;;;2.47;;
6864;SDS011;3471;49.678;8.388;2023-08-06T03:49:07;3.30;;;2.60;;
6864;SDS011;3471;49.678;8.388;2023-08-06T03:51:33;3.90;;;2.60;;
6864;SDS011;3471;49.678;8.388;2023-08-06T03:53:58;3.93;;;2.87;;
6864;SDS011;3471;49.678;8.388;2023-08-06T03:56:24;2.50;;;2.30;;
6864;SDS011;3471;49.678;8.388;2023-08-06T03:58:49;2.47;;;1.87;;
6864;SDS011;3471;49.678;8.388;2023-08-06T04:01:15;2.23;;;2.03;;
6864;SDS011;3471;49.678;8.388;2023-08-06T04:03:41;4.03;;;1.90;;
6864;SDS011;3471;49.678;8.388;2023-08-06T04:06:07;8.20;;;2.80;;
6864;SDS011;3471;49.678;8.388;2023-08-06T04:08:33;4.80;;;2.90;;
6864;SDS011;3471;49.678;8.388;2023-08-06T04:10:58;2.42;;;2.08;;
6864;SDS011;3471;49.678;8.388;2023-08-06T04:13:24;4.50;;;2.10;;
6864;SDS011;3471;49.678;8.388;2023-08-06T04:15:49;4.10;;;2.27;;
6864;SDS011;3471;49.678;8.388;2023-08-06T04:18:15;3.67;;;1.93;;
6864;SDS011;3471;49.678;8.388;2023-08-06T04:20:45;3.47;;;2.05;;
6864;SDS011;3471;49.678;8.388;2023-08-06T04:23:11;2.03;;;1.53;;
6864;SDS011;3471;49.678;8.388;2023-08-06T04:25:37;3.53;;;1.60;;
6864;SDS011;3471;49.678;8.388;2023-08-06T04:28:03;4.75;;;1.80;;
6864;SDS011;3471;49.678;8.388;2023-08-06T04:30:29;4.87;;;1.77;;
6864;SDS011;3471;49.678;8.388;2023-08-06T04:32:56;8.82;;;2.45;;
6864;SDS011;3471;49.678;8.388;2023-08-06T04:35:22;2.80;;;1.50;;
6864;SDS011;3471;49.678;8.388;2023-08-06T04:37:48;4.70;;;1.40;;
6864;SDS011;3471;49.678;8.388;2023-08-06T04:40:14;4.20;;;1.10;;
6864;SDS011;3471;49.678;8.388;2023-08-06T04:42:39;1.90;;;1.17;;
6864;SDS011;3471;49.678;8.388;2023-08-06T04:45:05;2.10;;;1.30;;
6864;SDS011;3471;49.678;8.388;2023-08-06T04:47:31;2.30;;;1.10;;
6864;SDS011;3471;49.678;8.388;2023-08-06T04:49:56;3.40;;;1.10;;
6864;SDS011;3471;49.678;8.388;2023-08-06T04:52:22;2.00;;;1.23;;
6864;SDS011;3471;49.678;8.388;2023-08-06T04:54:48;1.70;;;1.37;;
6864;SDS011;3471;49.678;8.388;2023-08-06T04:57:13;2.37;;;1.03;;
6864;SDS011;3471;49.678;8.388;2023-08-06T04:59:39;5.40;;;1.30;;
6864;SDS011;3471;49.678;8.388;2023-08-06T05:02:05;1.85;;;1.00;;
6864;SDS011;3471;49.678;8.388;2023-08-06T05:04:30;1.45;;;0.95;;
6864;SDS011;3471;49.678;8.388;2023-08-06T05:06:56;1.60;;;1.03;;
6864;SDS011;3471;49.678;8.388;2023-08-06T05:09:21;1.40;;;0.80;;
6864;SDS011;3471;49.678;8.388;2023-08-06T05:11:47;4.00;;;1.00;;
6864;SDS011;3471;49.678;8.388;2023-08-06T05:14:14;1.70;;;1.00;;
6864;SDS011;3471;49.678;8.388;2023-08-06T05:16:39;2.97;;;1.13;;
6864;SDS011;3471;49.678;8.388;2023-08-06T05:19:05;1.60;;;0.80;;
6864;SDS011;3471;49.678;8.388;2023-08-06T05:21:30;2.30;;;1.50;;
6864;SDS011;3471;49.678;8.388;2023-08-06T05:23:56;1.70;;;1.00;;
6864;SDS011;3471;49.678;8.388;2023-08-06T05:26:21;1.47;;;1.07;;
6864;SDS011;3471;49.678;8.388;2023-08-06T05:28:47;1.40;;;0.70;;
6864;SDS011;3471;49.678;8.388;2023-08-06T05:31:13;1.90;;;1.10;;
6864;SDS011;3471;49.678;8.388;2023-08-06T05:33:38;5.60;;;1.60;;
6864;SDS011;3471;49.678;8.388;2023-08-06T05:36:04;1.87;;;1.23;;
6864;SDS011;3471;49.678;8.388;2023-08-06T05:38:30;4.80;;;1.10;;
6864;SDS011;3471;49.678;8.388;2023-08-06T05:40:55;2.50;;;1.00;;
6864;SDS011;3471;49.678;8.388;2023-08-06T05:43:21;1.50;;;0.80;;
6864;SDS011;3471;49.678;8.388;2023-08-06T05:45:49;5.30;;;1.10;;
6864;SDS011;3471;49.678;8.388;2023-08-06T05:48:15;1.50;;;1.30;;
6864;SDS011;3471;49.678;8.388;2023-08-06T05:50:41;1.40;;;0.70;;
6864;SDS011;3471;49.678;8.388;2023-08-06T05:53:06;1.40;;;0.90;;
6864;SDS011;3471;49.678;8.388;2023-08-06T05:55:32;3.97;;;0.83;;
6864;SDS011;3471;49.678;8.388;2023-08-06T05:57:58;1.80;;;1.00;;
6864;SDS011;3471;49.678;8.388;2023-08-06T06:00:24;2.60;;;1.08;;
6864;SDS011;3471;49.678;8.388;2023-08-06T06:02:49;1.30;;;0.70;;
6864;SDS011;3471;49.678;8.388;2023-08-06T06:05:15;1.30;;;0.60;;
6864;SDS011;3471;49.678;8.388;2023-08-06T06:07:40;1.30;;;0.70;;
6864;SDS011;3471;49.678;8.388;2023-08-06T06:10:06;3.00;;;1.20;;
6864;SDS011;3471;49.678;8.388;2023-08-06T06:12:32;1.38;;;0.75;;
6864;SDS011;3471;49.678;8.388;2023-08-06T06:14:58;2.60;;;0.95;;
6864;SDS011;3471;49.678;8.388;2023-08-06T06:17:25;2.05;;;0.80;;
6864;SDS011;3471;49.678;8.388;2023-08-06T06:19:51;1.80;;;0.70;;
6864;SDS011;3471;49.678;8.388;2023-08-06T06:22:17;1.75;;;1.00;;
6864;SDS011;3471;49.678;8.388;2023-08-06T06:24:43;1.90;;;1.10;;
6864;SDS011;3471;49.678;8.388;2023-08-06T06:27:08;1.50;;;1.10;;
6864;SDS011;3471;49.678;8.388;2023-08-06T06:29:34;1.30;;;0.70;;
6864;SDS011;3471;49.678;8.388;2023-08-06T06:31:59;1.50;;;0.97;;
6864;SDS011;3471;49.678;8.388;2023-08-06T06:34:25;1.70;;;1.40;;
6864;SDS011;3471;49.678;8.388;2023-08-06T06:36:50;5.80;;;0.80;;
6864;SDS011;3471;49.678;8.388;2023-08-06T06:39:17;1.60;;;0.80;;
6864;SDS011;3471;49.678;8.388;2023-08-06T06:41:43;2.60;;;1.00;;
6864;SDS011;3471;49.678;8.388;2023-08-06T06:44:09;1.50;;;0.80;;
6864;SDS011;3471;49.678;8.388;2023-08-06T06:46:35;1.60;;;0.70;;
6864;SDS011;3471;49.678;8.388;2023-08-06T06:49:00;1.47;;;0.73;;
6864;SDS011;3471;49.678;8.388;2023-08-06T06:51:26;3.10;;;1.50;;
6864;SDS011;3471;49.678;8.388;2023-08-06T06:53:51;1.40;;;0.75;;
6864;SDS011;3471;49.678;8.388;2023-08-06T06:56:17;1.30;;;0.75;;
6864;SDS011;3471;49.678;8.388;2023-08-06T06:58:43;2.10;;;1.60;;
6864;SDS011;3471;49.678;8.388;2023-08-06T07:01:09;2.10;;;1.30;;
6864;SDS011;3471;49.678;8.388;2023-08-06T07:03:36;1.80;;;1.13;;
6864;SDS011;3471;49.678;8.388;2023-08-06T07:06:02;2.22;;;1.52;;
6864;SDS011;3471;49.678;8.388;2023-08-06T07:08:28;2.20;;;1.30;;
6864;SDS011;3471;49.678;8.388;2023-08-06T07:11:04;1.52;;;1.05;;
6864;SDS011;3471;49.678;8.388;2023-08-06T07:13:31;2.60;;;1.50;;
6864;SDS011;3471;49.678;8.388;2023-08-06T07:15:59;1.40;;;0.80;;
6864;SDS011;3471;49.678;8.388;2023-08-06T07:18:25;2.10;;;0.90;;
6864;SDS011;3471;49.678;8.388;2023-08-06T07:20:51;3.13;;;0.83;;
6864;SDS011;3471;49.678;8.388;2023-08-06T07:23:22;1.90;;;1.00;;
6864;SDS011;3471;49.678;8.388;2023-08-06T07:25:49;1.58;;;0.95;;
6864;SDS011;3471;49.678;8.388;2023-08-06T07:28:15;1.70;;;0.90;;
6864;SDS011;3471;49.678;8.388;2023-08-06T07:30:41;1.40;;;0.80;;
6864;SDS011;3471;49.678;8.388;2023-08-06T07:33:08;2.20;;;0.90;;
6864;SDS011;3471;49.678;8.388;2023-08-06T07:35:34;1.90;;;0.90;;
6864;SDS011;3471;49.678;8.388;2023-08-06T07:38:00;1.95;;;1.08;;
6864;SDS011;3471;49.678;8.388;2023-08-06T07:40:25;2.05;;;1.13;;
6864;SDS011;3471;49.678;8.388;2023-08-06T07:42:51;1.45;;;1.00;;
6864;SDS011;3471;49.678;8.388;2023-08-06T07:45:17;1.50;;;0.80;;
6864;SDS011;3471;49.678;8.388;2023-08-06T07:47:43;1.88;;;1.00;;
6864;SDS011;3471;49.678;8.388;2023-08-06T07:50:09;1.48;;;1.00;;
6864;SDS011;3471;49.678;8.388;2023-08-06T07:52:35;1.70;;;0.80;;
6864;SDS011;3471;49.678;8.388;2023-08-06T07:55:01;1.90;;;0.80;;
6864;SDS011;3471;49.678;8.388;2023-08-06T07:57:29;1.30;;;0.70;;
6864;SDS011;3471;49.678;8.388;2023-08-06T07:59:59;1.40;;;0.70;;
6864;SDS011;3471;49.678;8.388;2023-08-06T08:02:25;1.30;;;0.70;;
6864;SDS011;3471;49.678;8.388;2023-08-06T08:04:51;10.37;;;1.03;;
6864;SDS011;3471;49.678;8.388;2023-08-06T08:07:17;1.35;;;0.60;;
6864;SDS011;3471;49.678;8.388;2023-08-06T08:09:43;1.60;;;0.90;;
6864;SDS011;3471;49.678;8.388;2023-08-06T08:12:08;1.57;;;0.83;;
6864;SDS011;3471;49.678;8.388;2023-08-06T08:14:34;1.50;;;0.80;;
6864;SDS011;3471;49.678;8.388;2023-08-06T08:17:02;1.50;;;0.90;;
6864;SDS011;3471;49.678;8.388;2023-08-06T08:19:29;1.60;;;0.90;;
6864;SDS011;3471;49.678;8.388;2023-08-06T08:21:55;3.70;;;0.90;;
6864;SDS011;3471;49.678;8.388;2023-08-06T08:24:21;1.50;;;1.00;;
6864;SDS011;3471;49.678;8.388;2023-08-06T08:26:49;1.30;;;0.70;;
6864;SDS011;3471;49.678;8.388;2023-08-06T08:29:15;1.80;;;0.98;;
6864;SDS011;3471;49.678;8.388;2023-08-06T08:31:40;1.40;;;0.70;;
6864;SDS011;3471;49.678;8.388;2023-08-06T08:34:06;1.60;;;1.20;;
6864;SDS011;3471;49.678;8.388;2023-08-06T08:36:31;1.50;;;0.90;;
6864;SDS011;3471;49.678;8.388;2023-08-06T08:38:57;1.40;;;0.80;;
6864;SDS011;3471;49.678;8.388;2023-08-06T08:41:23;1.40;;;1.10;;
6864;SDS011;3471;49.678;8.388;2023-08-06T08:43:49;3.20;;;1.10;;
6864;SDS011;3471;49.678;8.388;2023-08-06T08:46:19;1.77;;;1.30;;
6864;SDS011;3471;49.678;8.388;2023-08-06T08:48:45;1.80;;;0.85;;
6864;SDS011;3471;49.678;8.388;2023-08-06T08:51:11;2.10;;;1.30;;
6864;SDS011;3471;49.678;8.388;2023-08-06T08:53:38;1.40;;;0.70;;
6864;SDS011;3471;49.678;8.388;2023-08-06T08:56:04;1.50;;;0.90;;
6864;SDS011;3471;49.678;8.388;2023-08-06T08:58:30;1.50;;;0.80;;
6864;SDS011;3471;49.678;8.388;2023-08-06T09:00:56;1.75;;;0.73;;
6864;SDS011;3471;49.678;8.388;2023-08-06T09:03:22;2.30;;;1.10;;
6864;SDS011;3471;49.678;8.388;2023-08-06T09:05:49;1.58;;;0.90;;
6864;SDS011;3471;49.678;8.388;2023-08-06T09:08:20;1.90;;;1.00;;
6864;SDS011;3471;49.678;8.388;2023-08-06T09:10:49;1.40;;;0.90;;
6864;SDS011;3471;49.678;8.388;2023-08-06T09:13:17;1.40;;;0.98;;
6864;SDS011;3471;49.678;8.388;2023-08-06T09:15:43;1.40;;;0.80;;
6864;SDS011;3471;49.678;8.388;2023-08-06T09:18:12;1.80;;;1.10;;
6864;SDS011;3471;49.678;8.388;2023-08-06T09:20:38;1.50;;;0.90;;
6864;SDS011;3471;49.678;8.388;2023-08-06T09:23:10;1.60;;;0.80;;
6864;SDS011;3471;49.678;8.388;2023-08-06T09:25:39;3.80;;;0.90;;
6864;SDS011;3471;49.678;8.388;2023-08-06T09:28:08;1.40;;;0.80;;
6864;SDS011;3471;49.678;8.388;2023-08-06T09:30:35;2.80;;;1.08;;
6864;SDS011;3471;49.678;8.388;2023-08-06T09:33:01;1.40;;;0.70;;
6864;SDS011;3471;49.678;8.388;2023-08-06T09:35:30;4.20;;;0.90;;
6864;SDS011;3471;49.678;8.388;2023-08-06T09:38:06;1.40;;;0.80;;
6864;SDS011;3471;49.678;8.388;2023-08-06T09:40:33;1.50;;;0.80;;
6864;SDS011;3471;49.678;8.388;2023-08-06T09:42:59;1.30;;;0.70;;
6864;SDS011;3471;49.678;8.388;2023-08-06T09:45:30;2.05;;;0.70;;
6864;SDS011;3471;49.678;8.388;2023-08-06T09:48:00;1.60;;;0.90;;
6864;SDS011;3471;49.678;8.388;2023-08-06T09:50:30;1.40;;;0.80;;
6864;SDS011;3471;49.678;8.388;2023-08-06T09:52:57;1.42;;;0.68;;
6864;SDS011;3471;49.678;8.388;2023-08-06T09:55:24;1.40;;;0.70;;
6864;SDS011;3471;49.678;8.388;2023-08-06T09:57:51;1.30;;;0.70;;
6864;SDS011;3471;49.678;8.388;2023-08-06T10:00:17;1.40;;;0.70;;
6864;SDS011;3471;49.678;8.388;2023-08-06T10:02:42;1.60;;;0.70;;
6864;SDS011;3471;49.678;8.388;2023-08-06T10:05:10;1.40;;;0.70;;
6864;SDS011;3471;49.678;8.388;2023-08-06T10:07:36;1.30;;;0.68;;
6864;SDS011;3471;49.678;8.388;2023-08-06T10:10:05;1.30;;;0.60;;
6864;SDS011;3471;49.678;8.388;2023-08-06T10:12:36;1.30;;;0.60;;
6864;SDS011;3471;49.678;8.388;2023-08-06T10:15:06;1.35;;;0.63;;
6864;SDS011;3471;49.678;8.388;2023-08-06T10:17:35;2.00;;;1.00;;
6864;SDS011;3471;49.678;8.388;2023-08-06T10:20:07;4.60;;;0.70;;
6864;SDS011;3471;49.678;8.388;2023-08-06T10:22:34;1.30;;;0.60;;
6864;SDS011;3471;49.678;8.388;2023-08-06T10:25:00;1.30;;;0.60;;
6864;SDS011;3471;49.678;8.388;2023-08-06T10:27:35;1.40;;;0.70;;
6864;SDS011;3471;49.678;8.388;2023-08-06T10:30:26;2.00;;;0.70;;
6864;SDS011;3471;49.678;8.388;2023-08-06T10:32:57;1.40;;;0.80;;
6864;SDS011;3471;49.678;8.388;2023-08-06T10:35:30;1.40;;;0.75;;
6864;SDS011;3471;49.678;8.388;2023-08-06T10:38:16;1.30;;;0.60;;
6864;SDS011;3471;49.678;8.388;2023-08-06T10:43:25;1.30;;;0.63;;
6864;SDS011;3471;49.678;8.388;2023-08-06T10:45:55;1.80;;;0.63;;
6864;SDS011;3471;49.678;8.388;2023-08-06T10:48:34;2.30;;;1.00;;
6864;SDS011;3471;49.678;8.388;2023-08-06T10:51:10;1.50;;;0.80;;
6864;SDS011;3471;49.678;8.388;2023-08-06T10:53:37;1.30;;;0.70;;
6864;SDS011;3471;49.678;8.388;2023-08-06T10:58:39;1.40;;;0.82;;
6864;SDS011;3471;49.678;8.388;2023-08-06T11:01:04;1.57;;;0.80;;
6864;SDS011;3471;49.678;8.388;2023-08-06T11:03:31;2.30;;;0.90;;
6864;SDS011;3471;49.678;8.388;2023-08-06T11:05:58;1.30;;;0.70;;
6864;SDS011;3471;49.678;8.388;2023-08-06T11:08:27;1.40;;;0.80;;
6864;SDS011;3471;49.678;8.388;2023-08-06T11:10:53;1.30;;;0.63;;
6864;SDS011;3471;49.678;8.388;2023-08-06T11:13:19;1.40;;;0.70;;
6864;SDS011;3471;49.678;8.388;2023-08-06T11:15:45;2.00;;;1.10;;
6864;SDS011;3471;49.678;8.388;2023-08-06T11:18:11;1.40;;;0.77;;
6864;SDS011;3471;49.678;8.388;2023-08-06T11:20:38;1.30;;;0.60;;
6864;SDS011;3471;49.678;8.388;2023-08-06T11:23:04;1.70;;;0.98;;
6864;SDS011;3471;49.678;8.388;2023-08-06T11:25:30;1.40;;;0.80;;
6864;SDS011;3471;49.678;8.388;2023-08-06T11:28:01;1.40;;;0.80;;
6864;SDS011;3471;49.678;8.388;2023-08-06T11:30:26;1.50;;;0.80;;
6864;SDS011;3471;49.678;8.388;2023-08-06T11:32:52;1.58;;;0.90;;
6864;SDS011;3471;49.678;8.388;2023-08-06T11:35:17;1.90;;;1.30;;
6864;SDS011;3471;49.678;8.388;2023-08-06T11:37:44;3.00;;;0.80;;
6864;SDS011;3471;49.678;8.388;2023-08-06T11:40:16;1.50;;;0.80;;
6864;SDS011;3471;49.678;8.388;2023-08-06T11:42:42;1.40;;;0.70;;
6864;SDS011;3471;49.678;8.388;2023-08-06T11:45:08;1.53;;;0.83;;
6864;SDS011;3471;49.678;8.388;2023-08-06T11:47:34;2.00;;;1.00;;
6864;SDS011;3471;49.678;8.388;2023-08-06T11:50:03;1.70;;;0.95;;
6864;SDS011;3471;49.678;8.388;2023-08-06T11:52:30;1.60;;;0.90;;
6864;SDS011;3471;49.678;8.388;2023-08-06T11:57:32;1.65;;;0.88;;
6864;SDS011;3471;49.678;8.388;2023-08-06T12:00:09;1.50;;;0.82;;
6864;SDS011;3471;49.678;8.388;2023-08-06T12:02:38;1.40;;;0.80;;
6864;SDS011;3471;49.678;8.388;2023-08-06T12:07:44;1.50;;;0.80;;
6864;SDS011;3471;49.678;8.388;2023-08-06T12:10:11;10.80;;;1.30;;
6864;SDS011;3471;49.678;8.388;2023-08-06T12:12:37;2.70;;;1.30;;
6864;SDS011;3471;49.678;8.388;2023-08-06T12:15:04;2.10;;;1.15;;
6864;SDS011;3471;49.678;8.388;2023-08-06T12:17:31;4.90;;;1.30;;
6864;SDS011;3471;49.678;8.388;2023-08-06T12:19:57;1.40;;;1.05;;
6864;SDS011;3471;49.678;8.388;2023-08-06T12:22:23;2.33;;;1.50;;
6864;SDS011;3471;49.678;8.388;2023-08-06T12:24:48;1.80;;;0.98;;
6864;SDS011;3471;49.678;8.388;2023-08-06T12:27:14;1.80;;;1.30;;
6864;SDS011;3471;49.678;8.388;2023-08-06T12:29:43;1.40;;;0.80;;
6864;SDS011;3471;49.678;8.388;2023-08-06T12:32:10;1.90;;;1.13;;
6864;SDS011;3471;49.678;8.388;2023-08-06T12:34:37;1.50;;;0.90;;
6864;SDS011;3471;49.678;8.388;2023-08-06T12:37:04;1.40;;;0.77;;
6864;SDS011;3471;49.678;8.388;2023-08-06T12:39:30;1.50;;;1.00;;
6864;SDS011;3471;49.678;8.388;2023-08-06T12:41:56;1.60;;;0.80;;
6864;SDS011;3471;49.678;8.388;2023-08-06T12:44:22;1.60;;;0.93;;
6864;SDS011;3471;49.678;8.388;2023-08-06T12:46:49;1.85;;;1.05;;
6864;SDS011;3471;49.678;8.388;2023-08-06T12:49:15;1.83;;;1.08;;
6864;SDS011;3471;49.678;8.388;2023-08-06T12:51:41;3.80;;;1.20;;
6864;SDS011;3471;49.678;8.388;2023-08-06T12:54:08;1.50;;;0.93;;
6864;SDS011;3471;49.678;8.388;2023-08-06T12:56:33;1.40;;;0.80;;
6864;SDS011;3471;49.678;8.388;2023-08-06T12:58:59;1.50;;;1.00;;
6864;SDS011;3471;49.678;8.388;2023-08-06T13:01:25;3.60;;;1.27;;
6864;SDS011;3471;49.678;8.388;2023-08-06T13:03:50;1.80;;;1.10;;
6864;SDS011;3471;49.678;8.388;2023-08-06T13:06:16;2.40;;;1.13;;
6864;SDS011;3471;49.678;8.388;2023-08-06T13:08:42;2.40;;;1.20;;
6864;SDS011;3471;49.678;8.388;2023-08-06T13:11:07;1.60;;;0.90;;
6864;SDS011;3471;49.678;8.388;2023-08-06T13:13:33;2.00;;;1.10;;
6864;SDS011;3471;49.678;8.388;2023-08-06T13:15:59;6.10;;;0.93;;
6864;SDS011;3471;49.678;8.388;2023-08-06T13:18:24;1.60;;;0.90;;
6864;SDS011;3471;49.678;8.388;2023-08-06T13:20:51;1.60;;;0.80;;
6864;SDS011;3471;49.678;8.388;2023-08-06T13:23:19;1.50;;;0.73;;
6864;SDS011;3471;49.678;8.388;2023-08-06T13:25:45;1.50;;;0.80;;
6864;SDS011;3471;49.678;8.388;2023-08-06T13:28:10;2.30;;;1.10;;
6864;SDS011;3471;49.678;8.388;2023-08-06T13:30:36;1.40;;;0.80;;
6864;SDS011;3471;49.678;8.388;2023-08-06T13:33:07;1.60;;;0.80;;
6864;SDS011;3471;49.678;8.388;2023-08-06T13:35:33;1.40;;;0.80;;
6864;SDS011;3471;49.678;8.388;2023-08-06T13:37:58;2.97;;;1.33;;
6864;SDS011;3471;49.678;8.388;2023-08-06T13:40:24;4.10;;;1.00;;
6864;SDS011;3471;49.678;8.388;2023-08-06T13:42:50;4.90;;;1.60;;
6864;SDS011;3471;49.678;8.388;2023-08-06T13:45:16;1.50;;;0.80;;
6864;SDS011;3471;49.678;8.388;2023-08-06T13:47:41;2.30;;;1.00;;
6864;SDS011;3471;49.678;8.388;2023-08-06T13:50:07;4.50;;;0.70;;
6864;SDS011;3471;49.678;8.388;2023-08-06T13:52:33;1.40;;;0.70;;
6864;SDS011;3471;49.678;8.388;2023-08-06T13:55:00;1.60;;;0.90;;
6864;SDS011;3471;49.678;8.388;2023-08-06T13:57:26;2.00;;;1.30;;
6864;SDS011;3471;49.678;8.388;2023-08-06T13:59:51;1.60;;;0.90;;
6864;SDS011;3471;49.678;8.388;2023-08-06T14:02:17;1.60;;;1.00;;
6864;SDS011;3471;49.678;8.388;2023-08-06T14:04:43;2.47;;;0.93;;
6864;SDS011;3471;49.678;8.388;2023-08-06T14:07:08;2.00;;;0.80;;
6864;SDS011;3471;49.678;8.388;2023-08-06T14:09:34;1.40;;;0.70;;
6864;SDS011;3471;49.678;8.388;2023-08-06T14:12:00;1.50;;;1.00;;
6864;SDS011;3471;49.678;8.388;2023-08-06T14:14:25;1.60;;;0.80;;
6864;SDS011;3471;49.678;8.388;2023-08-06T14:16:52;1.40;;;0.70;;
6864;SDS011;3471;49.678;8.388;2023-08-06T14:19:19;1.70;;;1.50;;
6864;SDS011;3471;49.678;8.388;2023-08-06T14:21:45;2.30;;;1.57;;
6864;SDS011;3471;49.678;8.388;2023-08-06T14:24:10;1.60;;;0.90;;
6864;SDS011;3471;49.678;8.388;2023-08-06T14:26:36;1.40;;;0.70;;
6864;SDS011;3471;49.678;8.388;2023-08-06T14:29:02;2.70;;;1.08;;
6864;SDS011;3471;49.678;8.388;2023-08-06T14:31:28;1.40;;;0.70;;
6864;SDS011;3471;49.678;8.388;2023-08-06T14:33:53;1.40;;;0.90;;
6864;SDS011;3471;49.678;8.388;2023-08-06T14:36:19;1.60;;;0.90;;
6864;SDS011;3471;49.678;8.388;2023-08-06T14:38:45;1.50;;;0.70;;
6864;SDS011;3471;49.678;8.388;2023-08-06T14:41:10;4.00;;;0.80;;
6864;SDS011;3471;49.678;8.388;2023-08-06T14:43:36;1.70;;;1.10;;
6864;SDS011;3471;49.678;8.388;2023-08-06T14:46:02;2.40;;;0.90;;
6864;SDS011;3471;49.678;8.388;2023-08-06T14:48:28;4.00;;;1.00;;
6864;SDS011;3471;49.678;8.388;2023-08-06T14:50:54;1.60;;;0.85;;
6864;SDS011;3471;49.678;8.388;2023-08-06T14:53:20;1.50;;;0.90;;
6864;SDS011;3471;49.678;8.388;2023-08-06T14:55:45;1.70;;;1.00;;
6864;SDS011;3471;49.678;8.388;2023-08-06T14:58:11;1.40;;;0.83;;
6864;SDS011;3471;49.678;8.388;2023-08-06T15:00:37;1.50;;;1.00;;
6864;SDS011;3471;49.678;8.388;2023-08-06T15:03:02;1.60;;;0.80;;
6864;SDS011;3471;49.678;8.388;2023-08-06T15:05:28;1.40;;;0.70;;
6864;SDS011;3471;49.678;8.388;2023-08-06T15:07:54;1.80;;;0.80;;
6864;SDS011;3471;49.678;8.388;2023-08-06T15:10:19;1.60;;;0.80;;
6864;SDS011;3471;49.678;8.388;2023-08-06T15:12:45;1.40;;;0.80;;
6864;SDS011;3471;49.678;8.388;2023-08-06T15:15:11;1.40;;;0.70;;
6864;SDS011;3471;49.678;8.388;2023-08-06T15:17:36;1.30;;;0.70;;
6864;SDS011;3471;49.678;8.388;2023-08-06T15:20:02;1.80;;;1.00;;
6864;SDS011;3471;49.678;8.388;2023-08-06T15:22:28;1.40;;;0.70;;
6864;SDS011;3471;49.678;8.388;2023-08-06T15:24:57;1.90;;;0.70;;